createdAt,value
2022-12-27T00:01:11.175Z,1.10
2022-12-27T00:03:42.229Z,0.93
2022-12-27T00:06:11.549Z,0.90
2022-12-27T00:08:41.108Z,0.70
2022-12-27T00:11:10.145Z,1.10
2022-12-27T00:13:38.277Z,0.90
2022-12-27T00:16:08.194Z,1.00
2022-12-27T00:18:36.659Z,0.90
2022-12-27T00:21:05.900Z,0.87
2022-12-27T00:23:36.375Z,0.90
2022-12-27T00:26:07.241Z,1.00
2022-12-27T00:28:36.481Z,1.10
2022-12-27T00:31:05.352Z,0.80
2022-12-27T00:33:35.157Z,0.80
2022-12-27T00:36:04.794Z,0.97
2022-12-27T00:38:33.458Z,1.20
2022-12-27T00:41:02.175Z,1.03
2022-12-27T00:43:31.844Z,0.90
2022-12-27T00:46:00.217Z,0.90
2022-12-27T00:48:28.422Z,1.00
2022-12-27T00:50:59.856Z,0.80
2022-12-27T00:53:28.413Z,0.90
2022-12-27T00:55:56.867Z,0.80
2022-12-27T00:58:25.075Z,0.80
2022-12-27T01:00:54.420Z,1.00
2022-12-27T01:03:22.643Z,0.90
2022-12-27T01:05:50.684Z,0.80
2022-12-27T01:08:18.649Z,1.03
2022-12-27T01:10:46.634Z,0.83
2022-12-27T01:13:14.585Z,0.70
2022-12-27T01:15:43.072Z,0.80
2022-12-27T01:18:12.373Z,1.03
2022-12-27T01:20:40.365Z,0.80
2022-12-27T01:23:08.356Z,0.90
2022-12-27T01:25:36.255Z,0.80
2022-12-27T01:28:04.549Z,1.00
2022-12-27T01:30:32.809Z,0.90
2022-12-27T01:33:00.956Z,0.70
2022-12-27T01:35:30.260Z,0.80
2022-12-27T01:37:58.219Z,0.80
2022-12-27T01:40:26.544Z,0.70
2022-12-27T01:42:53.532Z,0.80
2022-12-27T01:45:22.880Z,1.00
2022-12-27T01:47:56.383Z,0.73
2022-12-27T01:50:30.966Z,0.83
2022-12-27T01:53:07.791Z,0.80
2022-12-27T01:55:42.478Z,0.80
2022-12-27T01:58:14.749Z,0.80
2022-12-27T02:00:46.303Z,1.00
2022-12-27T02:03:18.481Z,1.13
2022-12-27T02:05:47.894Z,0.87
2022-12-27T02:08:35.729Z,0.80
2022-12-27T02:11:05.336Z,0.80
2022-12-27T02:13:35.778Z,0.90
2022-12-27T02:16:11.999Z,0.93
2022-12-27T02:18:40.004Z,0.93
2022-12-27T02:21:32.148Z,0.80
2022-12-27T02:24:15.793Z,0.90
2022-12-27T02:26:52.231Z,0.80
2022-12-27T02:29:49.383Z,0.80
2022-12-27T02:32:22.037Z,0.80
2022-12-27T02:34:59.676Z,1.10
2022-12-27T02:37:32.998Z,0.80
2022-12-27T02:40:19.531Z,0.77
2022-12-27T02:43:05.955Z,0.83
2022-12-27T02:45:58.937Z,1.03
2022-12-27T02:48:52.781Z,0.70
2022-12-27T02:51:57.017Z,0.87
2022-12-27T02:54:43.166Z,0.80
2022-12-27T02:57:22.640Z,0.90
2022-12-27T03:00:24.915Z,0.87
2022-12-27T03:03:23.712Z,1.00
2022-12-27T03:06:41.586Z,1.00
2022-12-27T03:09:57.336Z,0.87
2022-12-27T03:13:03.166Z,0.83
2022-12-27T03:15:57.652Z,1.07
2022-12-27T03:19:10.725Z,1.00
2022-12-27T03:22:01.856Z,0.80
2022-12-27T03:24:51.095Z,0.90
2022-12-27T03:27:22.406Z,1.00
2022-12-27T03:30:11.285Z,0.87
2022-12-27T03:33:06.109Z,0.80
2022-12-27T03:35:41.531Z,0.90
2022-12-27T03:38:13.728Z,1.00
2022-12-27T03:41:08.093Z,0.80
2022-12-27T03:43:37.873Z,0.87
2022-12-27T03:46:35.658Z,0.87
2022-12-27T03:49:17.096Z,1.07
2022-12-27T03:51:49.798Z,1.00
2022-12-27T03:54:26.456Z,1.00
2022-12-27T03:56:57.270Z,1.17
2022-12-27T03:59:25.657Z,0.90
2022-12-27T04:01:54.083Z,1.53
2022-12-27T04:04:22.105Z,1.20
2022-12-27T04:06:50.411Z,1.20
2022-12-27T04:09:37.292Z,1.20
2022-12-27T04:12:23.618Z,1.40
2022-12-27T04:15:09.117Z,1.70
2022-12-27T04:17:54.777Z,1.60
2022-12-27T04:20:40.387Z,1.80
2022-12-27T04:23:26.030Z,1.77
2022-12-27T04:26:12.731Z,1.97
2022-12-27T04:28:58.550Z,1.50
2022-12-27T04:31:43.977Z,1.90
2022-12-27T04:34:29.390Z,2.27
2022-12-27T04:36:57.317Z,1.70
2022-12-27T04:39:25.285Z,1.60
2022-12-27T04:42:11.984Z,1.50
2022-12-27T04:44:57.446Z,2.07
2022-12-27T04:47:43.449Z,1.70
2022-12-27T04:50:35.219Z,1.83
2022-12-27T04:53:20.505Z,1.80
2022-12-27T04:55:48.401Z,1.50
2022-12-27T04:58:17.741Z,1.80
2022-12-27T05:01:03.329Z,1.77
2022-12-27T05:03:31.799Z,2.03
2022-12-27T05:05:59.896Z,2.47
2022-12-27T05:08:45.640Z,1.90
2022-12-27T05:11:30.995Z,1.67
2022-12-27T05:14:03.368Z,1.40
2022-12-27T05:16:32.587Z,1.30
2022-12-27T05:19:00.603Z,1.87
2022-12-27T05:21:29.422Z,1.13
2022-12-27T05:24:14.759Z,0.90
2022-12-27T05:26:42.860Z,1.10
2022-12-27T05:29:12.293Z,1.47
2022-12-27T05:31:40.265Z,1.43
2022-12-27T05:34:08.347Z,1.43
2022-12-27T05:36:36.251Z,1.37
2022-12-27T05:39:04.280Z,1.20
2022-12-27T05:41:32.200Z,1.20
2022-12-27T05:44:04.961Z,1.93
2022-12-27T05:46:36.463Z,1.20
2022-12-27T05:49:04.918Z,1.20
2022-12-27T05:51:32.893Z,1.30
2022-12-27T05:54:00.863Z,1.10
2022-12-27T05:56:28.824Z,1.50
2022-12-27T05:58:56.806Z,1.40
2022-12-27T06:01:24.790Z,1.30
2022-12-27T06:03:54.307Z,1.63
2022-12-27T06:06:22.327Z,1.60
2022-12-27T06:08:50.225Z,1.20
2022-12-27T06:11:20.684Z,1.60
2022-12-27T06:13:52.414Z,1.40
2022-12-27T06:16:23.010Z,1.40
2022-12-27T06:18:51.190Z,1.40
2022-12-27T06:21:21.957Z,1.10
2022-12-27T06:23:50.655Z,1.20
2022-12-27T06:26:20.653Z,1.40
2022-12-27T06:28:49.536Z,1.40
2022-12-27T06:31:18.467Z,1.40
2022-12-27T06:33:47.181Z,1.67
2022-12-27T06:36:16.816Z,1.20
2022-12-27T06:38:46.448Z,1.40
2022-12-27T06:41:17.147Z,1.20
2022-12-27T06:43:45.967Z,1.47
2022-12-27T06:46:17.893Z,1.10
2022-12-27T06:48:46.544Z,1.47
2022-12-27T06:51:16.229Z,1.30
2022-12-27T06:53:44.241Z,1.07
2022-12-27T06:56:16.512Z,1.37
2022-12-27T06:58:44.789Z,1.43
2022-12-27T07:01:14.362Z,1.27
2022-12-27T07:03:42.648Z,1.53
2022-12-27T07:06:12.397Z,1.27
2022-12-27T07:08:40.424Z,1.27
2022-12-27T07:11:10.543Z,1.20
2022-12-27T07:13:41.433Z,1.30
2022-12-27T07:16:11.372Z,1.10
2022-12-27T07:18:39.640Z,1.40
2022-12-27T07:21:08.896Z,1.40
2022-12-27T07:23:37.595Z,1.60
2022-12-27T07:26:06.494Z,1.37
2022-12-27T07:28:35.017Z,1.60
2022-12-27T07:31:09.185Z,1.30
2022-12-27T07:33:38.125Z,1.00
2022-12-27T07:36:08.556Z,1.47
2022-12-27T07:38:36.546Z,1.00
2022-12-27T07:41:04.889Z,0.87
2022-12-27T07:43:34.074Z,1.57
2022-12-27T07:46:05.858Z,1.30
2022-12-27T07:48:35.218Z,1.00
2022-12-27T07:51:03.555Z,1.37
2022-12-27T07:53:32.024Z,1.33
2022-12-27T07:56:00.331Z,1.57
2022-12-27T07:58:28.274Z,1.50
2022-12-27T08:00:56.324Z,1.50
2022-12-27T08:03:24.299Z,1.93
2022-12-27T08:05:53.615Z,1.60
2022-12-27T08:08:25.588Z,1.10
2022-12-27T08:10:53.533Z,3.87
2022-12-27T08:13:21.433Z,1.10
2022-12-27T08:15:56.919Z,1.20
2022-12-27T08:18:24.899Z,1.50
2022-12-27T08:20:54.408Z,1.30
2022-12-27T08:23:22.524Z,1.43
2022-12-27T08:25:50.760Z,1.43
2022-12-27T08:28:19.508Z,1.47
2022-12-27T08:30:48.064Z,1.33
2022-12-27T08:33:16.473Z,1.20
2022-12-27T08:35:54.632Z,1.33
2022-12-27T08:38:24.436Z,1.20
2022-12-27T08:40:52.456Z,1.30
2022-12-27T08:43:21.172Z,1.20
2022-12-27T08:45:49.139Z,1.33
2022-12-27T08:48:18.267Z,1.57
2022-12-27T08:50:46.214Z,1.40
2022-12-27T08:53:14.183Z,1.20
2022-12-27T08:55:43.436Z,1.23
2022-12-27T08:58:16.319Z,1.27
2022-12-27T09:00:44.603Z,1.40
2022-12-27T09:03:12.640Z,1.50
2022-12-27T09:05:42.196Z,1.60
2022-12-27T09:08:10.603Z,2.27
2022-12-27T09:10:39.602Z,1.30
2022-12-27T09:13:12.977Z,2.97
2022-12-27T09:15:47.687Z,1.47
2022-12-27T09:18:15.627Z,1.00
2022-12-27T09:20:43.542Z,1.60
2022-12-27T09:23:11.496Z,1.13
2022-12-27T09:25:39.468Z,1.77
2022-12-27T09:28:07.967Z,1.47
2022-12-27T09:30:38.405Z,1.23
2022-12-27T09:33:06.301Z,1.33
2022-12-27T09:35:38.419Z,1.63
2022-12-27T09:38:06.630Z,1.60
2022-12-27T09:40:34.534Z,1.47
2022-12-27T09:43:20.735Z,1.20
2022-12-27T09:45:56.427Z,1.73
2022-12-27T09:48:33.530Z,1.63
2022-12-27T09:51:07.517Z,1.33
2022-12-27T09:53:44.136Z,1.43
2022-12-27T09:56:13.789Z,1.40
2022-12-27T09:58:47.891Z,1.47
2022-12-27T10:01:22.823Z,1.30
2022-12-27T10:03:51.169Z,1.33
2022-12-27T10:06:44.908Z,0.97
2022-12-27T10:09:29.324Z,1.20
2022-12-27T10:12:03.503Z,1.53
2022-12-27T10:14:49.653Z,2.23
2022-12-27T10:17:36.633Z,1.63
2022-12-27T10:20:16.388Z,1.20
2022-12-27T10:22:48.403Z,1.30
2022-12-27T10:25:20.888Z,1.10
2022-12-27T10:27:49.380Z,1.80
2022-12-27T10:30:20.005Z,1.20
2022-12-27T10:32:49.987Z,1.20
2022-12-27T10:35:19.633Z,1.47
2022-12-27T10:37:48.743Z,1.30
2022-12-27T10:40:20.748Z,1.17
2022-12-27T10:42:57.980Z,2.03
2022-12-27T10:45:32.272Z,1.20
2022-12-27T10:48:17.409Z,1.27
2022-12-27T10:50:54.331Z,1.43
2022-12-27T10:53:37.497Z,1.53
2022-12-27T10:56:13.237Z,1.30
2022-12-27T10:58:42.945Z,1.70
2022-12-27T11:01:19.664Z,1.30
2022-12-27T11:03:49.001Z,2.80
2022-12-27T11:06:22.059Z,1.70
2022-12-27T11:08:50.475Z,1.57
2022-12-27T11:11:21.455Z,1.20
2022-12-27T11:13:49.608Z,1.10
2022-12-27T11:16:30.018Z,1.30
2022-12-27T11:19:01.240Z,1.03
2022-12-27T11:21:30.545Z,1.50
2022-12-27T11:24:01.804Z,2.00
2022-12-27T11:26:34.735Z,1.40
2022-12-27T11:29:03.912Z,1.10
2022-12-27T11:31:36.193Z,1.33
2022-12-27T11:34:08.584Z,1.20
2022-12-27T11:36:40.705Z,1.40
2022-12-27T11:39:09.379Z,1.30
2022-12-27T11:41:46.707Z,1.50
2022-12-27T11:44:20.861Z,1.80
2022-12-27T11:46:59.046Z,1.60
2022-12-27T11:49:32.269Z,1.40
2022-12-27T11:52:19.745Z,1.50
2022-12-27T11:55:23.885Z,1.70
2022-12-27T11:58:14.454Z,1.60
2022-12-27T12:00:50.864Z,1.37
2022-12-27T12:03:52.300Z,1.70
2022-12-27T12:06:34.580Z,1.50
2022-12-27T12:09:21.040Z,1.27
2022-12-27T12:12:06.271Z,1.27
2022-12-27T12:14:51.330Z,1.43
2022-12-27T12:17:40.756Z,1.20
2022-12-27T12:20:23.765Z,1.60
2022-12-27T12:23:06.990Z,1.50
2022-12-27T12:26:14.493Z,2.20
2022-12-27T12:29:18.371Z,1.40
2022-12-27T12:32:22.032Z,1.40
2022-12-27T12:35:05.591Z,1.43
2022-12-27T12:37:49.661Z,2.80
2022-12-27T12:40:44.227Z,1.47
2022-12-27T12:43:25.216Z,1.10
2022-12-27T12:46:22.087Z,1.47
2022-12-27T12:49:09.625Z,1.33
2022-12-27T12:51:56.289Z,1.57
2022-12-27T12:54:52.032Z,1.00
2022-12-27T12:57:37.095Z,1.70
2022-12-27T13:00:19.790Z,1.70
2022-12-27T13:03:17.806Z,1.30
2022-12-27T13:05:50.991Z,1.50
2022-12-27T13:08:29.333Z,1.20
2022-12-27T13:11:14.041Z,1.30
2022-12-27T13:14:01.072Z,1.00
2022-12-27T13:16:41.734Z,1.50
2022-12-27T13:19:28.838Z,1.50
2022-12-27T13:22:08.965Z,1.23
2022-12-27T13:24:56.011Z,1.03
2022-12-27T13:27:35.215Z,1.27
2022-12-27T13:30:16.833Z,1.50
2022-12-27T13:33:02.050Z,1.33
2022-12-27T13:35:53.128Z,1.53
2022-12-27T13:38:34.184Z,1.40
2022-12-27T13:41:15.352Z,1.10
2022-12-27T13:43:57.080Z,1.47
2022-12-27T13:47:07.913Z,1.27
2022-12-27T13:50:02.622Z,1.33
2022-12-27T13:52:47.847Z,1.13
2022-12-27T13:55:37.680Z,0.90
2022-12-27T13:58:35.562Z,1.20
2022-12-27T14:01:20.069Z,1.30
2022-12-27T14:04:06.710Z,1.60
2022-12-27T14:07:06.141Z,1.57
2022-12-27T14:09:56.646Z,1.30
2022-12-27T14:12:59.020Z,1.30
2022-12-27T14:16:05.119Z,1.60
2022-12-27T14:18:48.322Z,1.57
2022-12-27T14:21:45.353Z,1.63
2022-12-27T14:24:24.600Z,1.27
2022-12-27T14:27:39.628Z,1.30
2022-12-27T14:30:39.586Z,1.60
2022-12-27T14:33:44.814Z,2.40
2022-12-27T14:36:39.332Z,1.57
2022-12-27T14:39:44.789Z,1.40
2022-12-27T14:42:45.224Z,2.23
2022-12-27T14:46:02.296Z,1.50
2022-12-27T14:49:21.591Z,1.33
2022-12-27T14:52:12.865Z,1.50
2022-12-27T14:55:13.692Z,1.57
2022-12-27T14:57:52.512Z,1.60
2022-12-27T15:00:22.947Z,1.77
2022-12-27T15:03:09.650Z,1.50
2022-12-27T15:05:49.958Z,2.27
2022-12-27T15:08:54.141Z,1.80
2022-12-27T15:11:47.750Z,1.53
2022-12-27T15:14:44.178Z,2.37
2022-12-27T15:17:26.461Z,1.50
2022-12-27T15:20:24.797Z,2.00
2022-12-27T15:23:04.700Z,1.47
2022-12-27T15:25:48.246Z,1.80
2022-12-27T15:28:24.184Z,1.70
2022-12-27T15:31:01.602Z,1.47
2022-12-27T15:33:38.827Z,1.80
2022-12-27T15:36:13.345Z,1.63
2022-12-27T15:38:51.201Z,1.50
2022-12-27T15:41:38.043Z,2.00
2022-12-27T15:44:39.814Z,1.73
2022-12-27T15:47:46.568Z,1.77
2022-12-27T15:50:40.637Z,1.80
2022-12-27T15:53:30.389Z,1.60
2022-12-27T15:56:30.508Z,1.77
2022-12-27T15:59:36.040Z,1.70
2022-12-27T16:02:29.426Z,2.30
2022-12-27T16:05:08.276Z,1.60
2022-12-27T16:07:46.823Z,1.87
2022-12-27T16:10:48.786Z,3.70
2022-12-27T16:13:36.033Z,9.27
2022-12-27T16:16:33.386Z,10.90
2022-12-27T16:19:34.202Z,2.70
2022-12-27T16:22:24.489Z,2.20
2022-12-27T16:24:53.890Z,2.60
2022-12-27T16:27:31.592Z,2.40
2022-12-27T16:30:00.415Z,2.30
2022-12-27T16:32:29.716Z,2.23
2022-12-27T16:35:14.606Z,1.70
2022-12-27T16:37:45.913Z,1.97
2022-12-27T16:40:40.912Z,2.30
2022-12-27T16:43:41.953Z,2.70
2022-12-27T16:46:18.999Z,3.37
2022-12-27T16:49:14.063Z,2.63
2022-12-27T16:51:55.441Z,1.90
2022-12-27T16:54:31.643Z,2.77
2022-12-27T16:57:34.519Z,2.23
2022-12-27T17:00:06.401Z,2.10
2022-12-27T17:02:41.867Z,2.23
2022-12-27T17:05:35.699Z,2.07
2022-12-27T17:08:20.435Z,2.40
2022-12-27T17:11:01.542Z,2.83
2022-12-27T17:13:38.273Z,2.50
2022-12-27T17:16:09.963Z,3.10
2022-12-27T17:18:43.519Z,3.03
2022-12-27T17:21:23.318Z,3.00
2022-12-27T17:23:56.678Z,3.97
2022-12-27T17:26:43.206Z,3.10
2022-12-27T17:29:30.122Z,3.17
2022-12-27T17:32:06.615Z,1.73
2022-12-27T17:34:44.740Z,2.30
2022-12-27T17:37:20.938Z,2.10
2022-12-27T17:40:03.028Z,2.73
2022-12-27T17:42:54.015Z,2.70
2022-12-27T17:45:34.298Z,2.50
2022-12-27T17:48:21.721Z,2.90
2022-12-27T17:50:51.722Z,3.17
2022-12-27T17:53:39.738Z,3.40
2022-12-27T17:56:37.366Z,2.57
2022-12-27T17:59:10.641Z,2.67
2022-12-27T18:01:47.123Z,3.00
2022-12-27T18:04:23.097Z,2.70
2022-12-27T18:06:56.255Z,3.43
2022-12-27T18:09:36.293Z,3.10
2022-12-27T18:12:10.216Z,3.20
2022-12-27T18:14:38.399Z,2.57
2022-12-27T18:17:08.103Z,3.00
2022-12-27T18:19:36.503Z,3.00
2022-12-27T18:22:04.900Z,2.40
2022-12-27T18:24:34.661Z,2.10
2022-12-27T18:27:05.928Z,2.90
2022-12-27T18:29:34.484Z,2.67
2022-12-27T18:32:05.626Z,2.73
2022-12-27T18:34:41.049Z,3.60
2022-12-27T18:37:13.456Z,3.37
2022-12-27T18:39:47.884Z,2.73
2022-12-27T18:42:18.927Z,3.53
2022-12-27T18:44:49.816Z,3.10
2022-12-27T18:47:22.639Z,3.23
2022-12-27T18:49:56.657Z,3.37
2022-12-27T18:52:30.716Z,3.60
2022-12-27T18:55:14.304Z,3.03
2022-12-27T18:57:42.648Z,4.10
2022-12-27T19:00:21.555Z,2.87
2022-12-27T19:02:50.516Z,3.90
2022-12-27T19:05:30.042Z,4.10
2022-12-27T19:08:36.577Z,3.07
2022-12-27T19:11:06.522Z,3.77
2022-12-27T19:13:42.975Z,3.80
2022-12-27T19:16:23.008Z,4.40
2022-12-27T19:18:53.493Z,3.87
2022-12-27T19:21:31.436Z,4.07
2022-12-27T19:23:59.539Z,4.47
2022-12-27T19:26:33.277Z,4.13
2022-12-27T19:29:07.334Z,4.70
2022-12-27T19:31:36.852Z,4.20
2022-12-27T19:34:10.477Z,3.73
2022-12-27T19:36:41.876Z,4.10
2022-12-27T19:39:25.883Z,4.90
2022-12-27T19:42:00.787Z,4.40
2022-12-27T19:44:29.676Z,4.17
2022-12-27T19:46:57.670Z,7.17
2022-12-27T19:49:42.598Z,3.90
2022-12-27T19:52:17.923Z,4.00
2022-12-27T19:54:46.293Z,4.40
2022-12-27T19:57:14.855Z,3.30
2022-12-27T19:59:43.102Z,4.50
2022-12-27T20:02:11.443Z,5.50
2022-12-27T20:04:39.590Z,8.20
2022-12-27T20:07:07.633Z,4.83
2022-12-27T20:09:37.527Z,4.80
2022-12-27T20:12:07.216Z,4.37
2022-12-27T20:14:35.236Z,4.83
2022-12-27T20:17:03.417Z,9.07
2022-12-27T20:19:31.385Z,7.47
2022-12-27T20:21:59.350Z,6.00
2022-12-27T20:24:27.279Z,5.43
2022-12-27T20:26:56.539Z,6.07
2022-12-27T20:29:25.889Z,5.90
2022-12-27T20:31:54.003Z,5.70
2022-12-27T20:34:22.310Z,7.33
2022-12-27T20:36:52.058Z,6.57
2022-12-27T20:39:19.985Z,6.00
2022-12-27T20:41:48.142Z,5.00
2022-12-27T20:44:19.053Z,7.27
2022-12-27T20:46:48.506Z,6.10
2022-12-27T20:49:16.436Z,5.40
2022-12-27T20:51:44.379Z,6.10
2022-12-27T20:54:14.131Z,5.87
2022-12-27T20:56:42.126Z,6.50
2022-12-27T20:59:10.063Z,7.17
2022-12-27T21:01:39.550Z,7.00
2022-12-27T21:04:07.599Z,6.20
2022-12-27T21:06:35.506Z,6.80
2022-12-27T21:09:03.483Z,7.47
2022-12-27T21:11:32.872Z,6.00
2022-12-27T21:14:01.812Z,6.10
2022-12-27T21:16:32.400Z,5.77
2022-12-27T21:19:04.580Z,5.73
2022-12-27T21:21:34.484Z,5.60
2022-12-27T21:24:03.052Z,7.07
2022-12-27T21:26:32.835Z,5.50
2022-12-27T21:29:02.821Z,6.40
2022-12-27T21:31:31.214Z,7.30
2022-12-27T21:34:01.015Z,6.60
2022-12-27T21:36:32.008Z,7.40
2022-12-27T21:39:01.757Z,7.73
2022-12-27T21:41:31.321Z,7.00
2022-12-27T21:43:59.715Z,7.93
2022-12-27T21:46:29.750Z,9.57
2022-12-27T21:48:59.564Z,8.80
2022-12-27T21:51:29.895Z,7.20
2022-12-27T21:53:57.937Z,7.83
2022-12-27T21:56:26.554Z,7.40
2022-12-27T21:58:56.336Z,7.50
2022-12-27T22:01:26.123Z,7.83
2022-12-27T22:03:55.933Z,8.73
2022-12-27T22:06:25.342Z,8.57
2022-12-27T22:08:56.823Z,7.30
2022-12-27T22:11:26.272Z,7.67
2022-12-27T22:13:54.439Z,7.53
2022-12-27T22:16:24.251Z,8.10
2022-12-27T22:18:52.419Z,7.43
2022-12-27T22:21:22.344Z,7.37
2022-12-27T22:23:52.069Z,6.37
2022-12-27T22:26:24.027Z,6.00
2022-12-27T22:28:52.124Z,6.60
2022-12-27T22:31:22.226Z,6.87
2022-12-27T22:33:51.126Z,6.30
2022-12-27T22:36:21.169Z,6.83
2022-12-27T22:38:50.310Z,7.17
2022-12-27T22:41:21.726Z,5.60
2022-12-27T22:43:51.929Z,6.47
2022-12-27T22:46:20.967Z,6.73
2022-12-27T22:48:51.548Z,6.40
2022-12-27T22:51:21.558Z,6.30
2022-12-27T22:53:49.947Z,6.83
2022-12-27T22:56:20.029Z,6.63
2022-12-27T22:58:49.915Z,6.67
2022-12-27T23:01:19.887Z,6.50
2022-12-27T23:03:48.435Z,6.83
2022-12-27T23:06:16.945Z,6.23
2022-12-27T23:08:45.832Z,5.73
2022-12-27T23:11:16.013Z,6.50
2022-12-27T23:13:44.285Z,6.20
2022-12-27T23:16:13.685Z,7.17
2022-12-27T23:18:41.904Z,7.00
2022-12-27T23:21:20.948Z,6.43
2022-12-27T23:23:52.384Z,6.60
2022-12-27T23:26:22.470Z,6.67
2022-12-27T23:28:51.844Z,7.30
2022-12-27T23:31:22.871Z,8.43
2022-12-27T23:33:51.589Z,7.10
2022-12-27T23:36:20.271Z,7.70
2022-12-27T23:38:48.682Z,8.00
2022-12-27T23:41:19.065Z,6.93
2022-12-27T23:43:52.651Z,7.30
2022-12-27T23:46:25.663Z,6.63
2022-12-27T23:48:53.699Z,7.30
2022-12-27T23:51:22.377Z,7.27
2022-12-27T23:53:50.814Z,6.77
2022-12-27T23:56:20.655Z,6.90
2022-12-27T23:58:49.571Z,8.27
